sensor_id;sensor_type;location;lat;lon;timestamp;pressure;altitude;pressure_sealevel;temperature;humidity
40171;BME280;37650;52.790;18.268;2023-03-31T00:02:49;99419.11;;;8.79;100.00
40171;BME280;37650;52.790;18.268;2023-03-31T00:06:13;99414.58;;;8.75;100.00
40171;BME280;37650;52.790;18.268;2023-03-31T00:09:39;99418.43;;;8.71;100.00
40171;BME280;37650;52.790;18.268;2023-03-31T00:13:06;99417.85;;;8.68;100.00
40171;BME280;37650;52.790;18.268;2023-03-31T00:16:27;99416.30;;;8.64;100.00
40171;BME280;37650;52.790;18.268;2023-03-31T00:19:48;99414.31;;;8.65;100.00
40171;BME280;37650;52.790;18.268;2023-03-31T00:23:10;99417.46;;;8.69;100.00
40171;BME280;37650;52.790;18.268;2023-03-31T00:26:35;99417.63;;;8.73;100.00
40171;BME280;37650;52.790;18.268;2023-03-31T00:29:56;99417.98;;;8.77;100.00
40171;BME280;37650;52.790;18.268;2023-03-31T00:33:18;99418.60;;;8.82;100.00
40171;BME280;37650;52.790;18.268;2023-03-31T00:36:39;99413.52;;;8.86;100.00
40171;BME280;37650;52.790;18.268;2023-03-31T00:40:06;99411.29;;;8.90;100.00
40171;BME280;37650;52.790;18.268;2023-03-31T00:43:37;99410.23;;;8.93;100.00
40171;BME280;37650;52.790;18.268;2023-03-31T00:50:32;99397.75;;;8.95;100.00
40171;BME280;37650;52.790;18.268;2023-03-31T00:54:02;99400.70;;;8.96;100.00
40171;BME280;37650;52.790;18.268;2023-03-31T00:57:26;99396.84;;;8.92;100.00
40171;BME280;37650;52.790;18.268;2023-03-31T01:00:49;99396.32;;;8.87;100.00
40171;BME280;37650;52.790;18.268;2023-03-31T01:04:13;99394.20;;;8.88;100.00
40171;BME280;37650;52.790;18.268;2023-03-31T01:07:41;99391.02;;;8.90;100.00
40171;BME280;37650;52.790;18.268;2023-03-31T01:11:05;99390.02;;;8.88;100.00
40171;BME280;37650;52.790;18.268;2023-03-31T01:14:28;99389.53;;;8.83;100.00
40171;BME280;37650;52.790;18.268;2023-03-31T01:17:50;99392.74;;;8.78;100.00
40171;BME280;37650;52.790;18.268;2023-03-31T01:35:54;99378.61;;;8.39;100.00
40171;BME280;37650;52.790;18.268;2023-03-31T01:43:21;99378.01;;;8.20;100.00
40171;BME280;37650;52.790;18.268;2023-03-31T01:46:55;99377.84;;;8.12;100.00
40171;BME280;37650;52.790;18.268;2023-03-31T02:01:35;99375.86;;;8.05;100.00
40171;BME280;37650;52.790;18.268;2023-03-31T02:05:25;99376.71;;;8.01;100.00
40171;BME280;37650;52.790;18.268;2023-03-31T02:08:50;99369.39;;;7.92;100.00
40171;BME280;37650;52.790;18.268;2023-03-31T02:12:18;99365.05;;;7.84;100.00
40171;BME280;37650;52.790;18.268;2023-03-31T02:15:45;99362.42;;;7.80;100.00
40171;BME280;37650;52.790;18.268;2023-03-31T02:19:09;99359.66;;;7.75;100.00
40171;BME280;37650;52.790;18.268;2023-03-31T02:22:34;99364.92;;;7.71;100.00
40171;BME280;37650;52.790;18.268;2023-03-31T02:26:01;99372.74;;;7.63;100.00
40171;BME280;37650;52.790;18.268;2023-03-31T02:29:25;99374.27;;;7.51;100.00
40171;BME280;37650;52.790;18.268;2023-03-31T02:32:46;99377.04;;;7.43;100.00
40171;BME280;37650;52.790;18.268;2023-03-31T02:36:09;99372.88;;;7.38;100.00
40171;BME280;37650;52.790;18.268;2023-03-31T02:39:34;99369.41;;;7.33;100.00
40171;BME280;37650;52.790;18.268;2023-03-31T02:42:56;99365.38;;;7.29;100.00
40171;BME280;37650;52.790;18.268;2023-03-31T02:46:17;99365.19;;;7.26;100.00
40171;BME280;37650;52.790;18.268;2023-03-31T02:49:47;99360.02;;;7.24;100.00
40171;BME280;37650;52.790;18.268;2023-03-31T02:53:39;99353.45;;;7.22;100.00
40171;BME280;37650;52.790;18.268;2023-03-31T03:07:42;99347.60;;;7.07;100.00
40171;BME280;37650;52.790;18.268;2023-03-31T03:11:18;99350.59;;;7.06;100.00
40171;BME280;37650;52.790;18.268;2023-03-31T03:14:43;99344.05;;;7.04;100.00
40171;BME280;37650;52.790;18.268;2023-03-31T03:18:08;99344.23;;;6.99;100.00
40171;BME280;37650;52.790;18.268;2023-03-31T03:21:31;99340.75;;;6.95;100.00
40171;BME280;37650;52.790;18.268;2023-03-31T03:24:53;99341.88;;;6.93;100.00
40171;BME280;37650;52.790;18.268;2023-03-31T03:28:15;99338.31;;;6.90;100.00
40171;BME280;37650;52.790;18.268;2023-03-31T03:31:38;99344.02;;;6.87;100.00
40171;BME280;37650;52.790;18.268;2023-03-31T03:35:01;99339.52;;;6.82;100.00
40171;BME280;37650;52.790;18.268;2023-03-31T03:38:23;99338.80;;;6.78;100.00
40171;BME280;37650;52.790;18.268;2023-03-31T03:41:44;99336.91;;;6.72;100.00
40171;BME280;37650;52.790;18.268;2023-03-31T03:45:06;99339.81;;;6.69;100.00
40171;BME280;37650;52.790;18.268;2023-03-31T03:48:28;99336.18;;;6.69;100.00
40171;BME280;37650;52.790;18.268;2023-03-31T03:51:49;99330.65;;;6.67;100.00
40171;BME280;37650;52.790;18.268;2023-03-31T03:55:12;99331.94;;;6.66;100.00
40171;BME280;37650;52.790;18.268;2023-03-31T04:02:42;99333.33;;;6.66;100.00
40171;BME280;37650;52.790;18.268;2023-03-31T04:06:03;99328.05;;;6.67;100.00
40171;BME280;37650;52.790;18.268;2023-03-31T04:09:25;99323.25;;;6.69;100.00
40171;BME280;37650;52.790;18.268;2023-03-31T04:12:46;99322.13;;;6.72;100.00
40171;BME280;37650;52.790;18.268;2023-03-31T04:16:07;99317.88;;;6.73;100.00
40171;BME280;37650;52.790;18.268;2023-03-31T04:19:28;99320.20;;;6.76;100.00
40171;BME280;37650;52.790;18.268;2023-03-31T04:22:50;99319.92;;;6.79;100.00
40171;BME280;37650;52.790;18.268;2023-03-31T04:26:13;99320.60;;;6.84;100.00
40171;BME280;37650;52.790;18.268;2023-03-31T04:29:35;99316.16;;;6.86;100.00
40171;BME280;37650;52.790;18.268;2023-03-31T04:33:01;99303.92;;;6.87;100.00
40171;BME280;37650;52.790;18.268;2023-03-31T04:36:23;99299.08;;;6.86;100.00
40171;BME280;37650;52.790;18.268;2023-03-31T04:39:45;99298.75;;;6.86;100.00
40171;BME280;37650;52.790;18.268;2023-03-31T04:43:06;99304.27;;;6.87;100.00
40171;BME280;37650;52.790;18.268;2023-03-31T04:46:28;99299.09;;;6.90;100.00
40171;BME280;37650;52.790;18.268;2023-03-31T04:49:49;99296.83;;;6.95;100.00
40171;BME280;37650;52.790;18.268;2023-03-31T04:53:11;99296.52;;;6.98;100.00
40171;BME280;37650;52.790;18.268;2023-03-31T04:56:33;99298.90;;;6.99;100.00
40171;BME280;37650;52.790;18.268;2023-03-31T04:59:55;99295.23;;;7.04;100.00
40171;BME280;37650;52.790;18.268;2023-03-31T05:03:16;99292.17;;;7.10;100.00
40171;BME280;37650;52.790;18.268;2023-03-31T05:06:37;99284.99;;;7.15;100.00
40171;BME280;37650;52.790;18.268;2023-03-31T05:09:59;99288.19;;;7.18;100.00
40171;BME280;37650;52.790;18.268;2023-03-31T05:13:20;99289.38;;;7.19;100.00
40171;BME280;37650;52.790;18.268;2023-03-31T05:16:41;99287.68;;;7.18;100.00
40171;BME280;37650;52.790;18.268;2023-03-31T05:20:05;99286.52;;;7.21;100.00
40171;BME280;37650;52.790;18.268;2023-03-31T05:23:28;99277.84;;;7.25;100.00
40171;BME280;37650;52.790;18.268;2023-03-31T05:26:50;99274.45;;;7.26;100.00
40171;BME280;37650;52.790;18.268;2023-03-31T05:30:15;99268.55;;;7.30;100.00
40171;BME280;37650;52.790;18.268;2023-03-31T05:33:36;99269.61;;;7.33;100.00
40171;BME280;37650;52.790;18.268;2023-03-31T05:37:01;99266.00;;;7.36;100.00
40171;BME280;37650;52.790;18.268;2023-03-31T05:40:22;99266.70;;;7.41;100.00
40171;BME280;37650;52.790;18.268;2023-03-31T05:43:44;99267.92;;;7.44;100.00
40171;BME280;37650;52.790;18.268;2023-03-31T05:47:14;99267.10;;;7.51;100.00
40171;BME280;37650;52.790;18.268;2023-03-31T05:50:35;99257.17;;;7.59;100.00
40171;BME280;37650;52.790;18.268;2023-03-31T05:53:57;99253.23;;;7.66;100.00
40171;BME280;37650;52.790;18.268;2023-03-31T05:57:18;99249.14;;;7.76;100.00
40171;BME280;37650;52.790;18.268;2023-03-31T06:00:40;99253.52;;;7.83;100.00
40171;BME280;37650;52.790;18.268;2023-03-31T06:04:04;99248.40;;;7.88;100.00
40171;BME280;37650;52.790;18.268;2023-03-31T06:07:26;99244.09;;;7.95;100.00
40171;BME280;37650;52.790;18.268;2023-03-31T06:10:47;99246.65;;;8.04;100.00
40171;BME280;37650;52.790;18.268;2023-03-31T06:14:08;99253.11;;;8.12;100.00
40171;BME280;37650;52.790;18.268;2023-03-31T06:17:29;99256.37;;;8.17;100.00
40171;BME280;37650;52.790;18.268;2023-03-31T06:20:51;99251.56;;;8.19;100.00
40171;BME280;37650;52.790;18.268;2023-03-31T06:24:12;99250.08;;;8.25;100.00
40171;BME280;37650;52.790;18.268;2023-03-31T06:27:34;99248.07;;;8.31;100.00
40171;BME280;37650;52.790;18.268;2023-03-31T06:31:02;99245.18;;;8.37;100.00
40171;BME280;37650;52.790;18.268;2023-03-31T06:34:24;99247.55;;;8.42;100.00
40171;BME280;37650;52.790;18.268;2023-03-31T06:37:45;99248.06;;;8.50;100.00
40171;BME280;37650;52.790;18.268;2023-03-31T06:41:08;99243.73;;;8.53;100.00
40171;BME280;37650;52.790;18.268;2023-03-31T06:44:31;99238.98;;;8.57;100.00
40171;BME280;37650;52.790;18.268;2023-03-31T06:47:52;99238.35;;;8.60;100.00
40171;BME280;37650;52.790;18.268;2023-03-31T06:51:14;99232.84;;;8.69;100.00
40171;BME280;37650;52.790;18.268;2023-03-31T06:54:35;99233.77;;;8.82;100.00
40171;BME280;37650;52.790;18.268;2023-03-31T06:57:56;99230.05;;;8.91;100.00
40171;BME280;37650;52.790;18.268;2023-03-31T07:01:17;99232.42;;;9.07;100.00
40171;BME280;37650;52.790;18.268;2023-03-31T07:04:40;99232.33;;;9.26;100.00
40171;BME280;37650;52.790;18.268;2023-03-31T07:08:01;99238.87;;;9.42;100.00
40171;BME280;37650;52.790;18.268;2023-03-31T07:11:23;99236.81;;;9.48;100.00
40171;BME280;37650;52.790;18.268;2023-03-31T07:14:44;99237.00;;;9.58;100.00
40171;BME280;37650;52.790;18.268;2023-03-31T07:18:06;99238.85;;;9.70;100.00
40171;BME280;37650;52.790;18.268;2023-03-31T07:21:27;99234.36;;;9.72;100.00
40171;BME280;37650;52.790;18.268;2023-03-31T07:24:48;99233.38;;;9.78;100.00
40171;BME280;37650;52.790;18.268;2023-03-31T07:28:10;99232.77;;;9.89;100.00
40171;BME280;37650;52.790;18.268;2023-03-31T07:31:31;99231.15;;;9.97;100.00
40171;BME280;37650;52.790;18.268;2023-03-31T07:34:52;99230.89;;;10.01;100.00
40171;BME280;37650;52.790;18.268;2023-03-31T07:38:13;99229.85;;;10.04;100.00
40171;BME280;37650;52.790;18.268;2023-03-31T07:41:34;99227.00;;;10.05;100.00
40171;BME280;37650;52.790;18.268;2023-03-31T07:44:55;99221.95;;;10.05;100.00
40171;BME280;37650;52.790;18.268;2023-03-31T07:48:17;99215.66;;;10.14;100.00
40171;BME280;37650;52.790;18.268;2023-03-31T07:51:38;99217.94;;;10.24;100.00
40171;BME280;37650;52.790;18.268;2023-03-31T07:55:00;99210.46;;;10.36;100.00
40171;BME280;37650;52.790;18.268;2023-03-31T07:58:21;99208.02;;;10.46;100.00
40171;BME280;37650;52.790;18.268;2023-03-31T08:01:43;99201.64;;;10.63;100.00
40171;BME280;37650;52.790;18.268;2023-03-31T08:05:05;99200.31;;;10.71;100.00
40171;BME280;37650;52.790;18.268;2023-03-31T08:08:27;99195.30;;;10.81;100.00
40171;BME280;37650;52.790;18.268;2023-03-31T08:11:48;99191.59;;;10.88;100.00
40171;BME280;37650;52.790;18.268;2023-03-31T08:15:10;99191.60;;;11.03;100.00
40171;BME280;37650;52.790;18.268;2023-03-31T08:18:31;99190.47;;;11.02;100.00
40171;BME280;37650;52.790;18.268;2023-03-31T08:21:53;99182.34;;;11.11;100.00
40171;BME280;37650;52.790;18.268;2023-03-31T08:25:14;99179.48;;;11.27;100.00
40171;BME280;37650;52.790;18.268;2023-03-31T08:28:36;99174.58;;;11.48;100.00
40171;BME280;37650;52.790;18.268;2023-03-31T08:31:57;99175.79;;;11.48;100.00
40171;BME280;37650;52.790;18.268;2023-03-31T08:35:19;99171.98;;;11.62;100.00
40171;BME280;37650;52.790;18.268;2023-03-31T08:38:42;99170.96;;;11.90;100.00
40171;BME280;37650;52.790;18.268;2023-03-31T08:42:14;99172.41;;;12.20;100.00
40171;BME280;37650;52.790;18.268;2023-03-31T08:45:39;99169.58;;;12.46;100.00
40171;BME280;37650;52.790;18.268;2023-03-31T08:49:02;99163.05;;;12.65;100.00
40171;BME280;37650;52.790;18.268;2023-03-31T08:52:46;99164.17;;;12.80;100.00
40171;BME280;37650;52.790;18.268;2023-03-31T08:56:15;99158.60;;;12.92;100.00
40171;BME280;37650;52.790;18.268;2023-03-31T08:59:38;99156.32;;;13.03;100.00
40171;BME280;37650;52.790;18.268;2023-03-31T09:03:05;99151.17;;;13.28;100.00
40171;BME280;37650;52.790;18.268;2023-03-31T09:17:45;99130.50;;;16.02;100.00
40171;BME280;37650;52.790;18.268;2023-03-31T09:21:19;99124.66;;;15.52;100.00
40171;BME280;37650;52.790;18.268;2023-03-31T09:24:51;99128.98;;;15.58;100.00
40171;BME280;37650;52.790;18.268;2023-03-31T09:28:22;99123.45;;;14.98;100.00
40171;BME280;37650;52.790;18.268;2023-03-31T09:31:45;99114.63;;;14.94;100.00
40171;BME280;37650;52.790;18.268;2023-03-31T09:35:22;99111.55;;;15.02;100.00
40171;BME280;37650;52.790;18.268;2023-03-31T09:38:45;99106.79;;;15.08;100.00
40171;BME280;37650;52.790;18.268;2023-03-31T09:42:10;99109.69;;;14.94;100.00
40171;BME280;37650;52.790;18.268;2023-03-31T09:45:32;99107.06;;;14.60;100.00
40171;BME280;37650;52.790;18.268;2023-03-31T09:48:59;99104.34;;;14.37;100.00
40171;BME280;37650;52.790;18.268;2023-03-31T09:52:33;99097.00;;;14.31;100.00
40171;BME280;37650;52.790;18.268;2023-03-31T09:56:02;99096.86;;;14.16;100.00
40171;BME280;37650;52.790;18.268;2023-03-31T09:59:34;99102.53;;;14.11;100.00
40171;BME280;37650;52.790;18.268;2023-03-31T10:03:00;99095.08;;;14.04;100.00
40171;BME280;37650;52.790;18.268;2023-03-31T10:06:27;99094.16;;;13.87;100.00
40171;BME280;37650;52.790;18.268;2023-03-31T10:09:48;99092.20;;;13.97;100.00
40171;BME280;37650;52.790;18.268;2023-03-31T10:13:09;99084.69;;;14.41;100.00
40171;BME280;37650;52.790;18.268;2023-03-31T10:16:33;99084.15;;;14.88;100.00
40171;BME280;37650;52.790;18.268;2023-03-31T10:19:57;99080.36;;;15.17;100.00
40171;BME280;37650;52.790;18.268;2023-03-31T10:23:23;99073.82;;;15.47;100.00
40171;BME280;37650;52.790;18.268;2023-03-31T10:26:53;99063.73;;;16.59;100.00
40171;BME280;37650;52.790;18.268;2023-03-31T10:30:20;99062.88;;;17.87;98.08
40171;BME280;37650;52.790;18.268;2023-03-31T10:33:45;99059.35;;;18.63;92.29
40171;BME280;37650;52.790;18.268;2023-03-31T10:37:14;99044.23;;;18.00;89.63
40171;BME280;37650;52.790;18.268;2023-03-31T10:40:37;99041.73;;;17.97;88.62
40171;BME280;37650;52.790;18.268;2023-03-31T10:44:02;99044.70;;;17.83;88.11
40171;BME280;37650;52.790;18.268;2023-03-31T10:47:24;99038.02;;;18.43;87.74
40171;BME280;37650;52.790;18.268;2023-03-31T10:50:47;99038.13;;;18.50;86.22
40171;BME280;37650;52.790;18.268;2023-03-31T10:54:08;99034.80;;;17.92;86.63
40171;BME280;37650;52.790;18.268;2023-03-31T10:57:39;99037.19;;;17.18;87.44
40171;BME280;37650;52.790;18.268;2023-03-31T11:01:07;99033.84;;;16.89;89.94
40171;BME280;37650;52.790;18.268;2023-03-31T11:05:10;99033.59;;;16.89;89.21
40171;BME280;37650;52.790;18.268;2023-03-31T11:15:59;99007.98;;;16.16;89.55
40171;BME280;37650;52.790;18.268;2023-03-31T11:19:37;99001.66;;;17.33;86.98
40171;BME280;37650;52.790;18.268;2023-03-31T11:23:09;98997.83;;;17.57;83.62
40171;BME280;37650;52.790;18.268;2023-03-31T11:27:05;98991.89;;;17.32;85.41
40171;BME280;37650;52.790;18.268;2023-03-31T11:30:38;98980.52;;;17.36;84.24
40171;BME280;37650;52.790;18.268;2023-03-31T11:44:44;98968.54;;;19.11;80.35
40171;BME280;37650;52.790;18.268;2023-03-31T11:48:26;98963.65;;;19.28;79.45
40171;BME280;37650;52.790;18.268;2023-03-31T11:51:59;98957.33;;;18.92;81.36
40171;BME280;37650;52.790;18.268;2023-03-31T11:55:25;98951.33;;;18.36;79.03
40171;BME280;37650;52.790;18.268;2023-03-31T11:58:53;98946.27;;;17.56;78.45
40171;BME280;37650;52.790;18.268;2023-03-31T12:03:06;98939.94;;;17.09;80.45
40171;BME280;37650;52.790;18.268;2023-03-31T12:06:19;98942.14;;;16.96;81.39
40171;BME280;37650;52.790;18.268;2023-03-31T12:17:27;98940.13;;;16.58;81.84
40171;BME280;37650;52.790;18.268;2023-03-31T12:20:55;98933.27;;;16.42;83.75
40171;BME280;37650;52.790;18.268;2023-03-31T12:24:18;98924.34;;;16.58;83.66
40171;BME280;37650;52.790;18.268;2023-03-31T12:27:41;98920.84;;;16.55;81.38
40171;BME280;37650;52.790;18.268;2023-03-31T12:31:05;98919.94;;;16.64;82.63
40171;BME280;37650;52.790;18.268;2023-03-31T12:34:28;98917.84;;;16.58;83.59
40171;BME280;37650;52.790;18.268;2023-03-31T12:41:43;98911.16;;;15.82;83.20
40171;BME280;37650;52.790;18.268;2023-03-31T12:45:35;98904.64;;;15.43;85.70
40171;BME280;37650;52.790;18.268;2023-03-31T12:56:04;98895.23;;;15.06;86.43
40171;BME280;37650;52.790;18.268;2023-03-31T12:59:38;98888.60;;;14.78;87.17
40171;BME280;37650;52.790;18.268;2023-03-31T13:07:00;98870.17;;;14.50;88.74
40171;BME280;37650;52.790;18.268;2023-03-31T13:10:26;98863.80;;;14.36;88.80
40171;BME280;37650;52.790;18.268;2023-03-31T13:14:23;98858.60;;;14.25;89.37
40171;BME280;37650;52.790;18.268;2023-03-31T13:17:58;98854.23;;;14.18;90.41
40171;BME280;37650;52.790;18.268;2023-03-31T13:21:19;98847.89;;;14.16;91.53
40171;BME280;37650;52.790;18.268;2023-03-31T13:24:40;98851.88;;;14.12;94.02
40171;BME280;37650;52.790;18.268;2023-03-31T13:28:25;98851.13;;;14.03;96.13
40171;BME280;37650;52.790;18.268;2023-03-31T13:32:18;98850.73;;;13.92;97.80
40171;BME280;37650;52.790;18.268;2023-03-31T13:35:44;98853.39;;;13.80;99.50
40171;BME280;37650;52.790;18.268;2023-03-31T14:08:55;98786.27;;;15.62;99.91
40171;BME280;37650;52.790;18.268;2023-03-31T14:15:56;98780.80;;;15.64;93.47
40171;BME280;37650;52.790;18.268;2023-03-31T14:19:49;98773.17;;;15.60;93.37
40171;BME280;37650;52.790;18.268;2023-03-31T14:27:19;98773.27;;;15.64;88.39
40171;BME280;37650;52.790;18.268;2023-03-31T14:31:17;98764.70;;;15.36;90.15
40171;BME280;37650;52.790;18.268;2023-03-31T14:34:50;98763.92;;;15.09;90.83
40171;BME280;37650;52.790;18.268;2023-03-31T14:38:17;98763.42;;;14.92;91.24
40171;BME280;37650;52.790;18.268;2023-03-31T14:41:39;98759.63;;;14.64;91.74
40171;BME280;37650;52.790;18.268;2023-03-31T14:45:03;98751.85;;;14.49;93.67
40171;BME280;37650;52.790;18.268;2023-03-31T14:48:27;98749.42;;;14.39;94.32
40171;BME280;37650;52.790;18.268;2023-03-31T14:51:52;98745.48;;;14.20;93.81
40171;BME280;37650;52.790;18.268;2023-03-31T14:55:15;98744.23;;;14.02;94.46
40171;BME280;37650;52.790;18.268;2023-03-31T14:58:43;98734.85;;;13.88;95.48
40171;BME280;37650;52.790;18.268;2023-03-31T15:02:13;98733.54;;;13.80;95.85
40171;BME280;37650;52.790;18.268;2023-03-31T15:05:37;98728.54;;;13.70;96.09
40171;BME280;37650;52.790;18.268;2023-03-31T15:09:01;98728.63;;;13.57;96.70
40171;BME280;37650;52.790;18.268;2023-03-31T15:12:24;98723.50;;;13.50;97.65
40171;BME280;37650;52.790;18.268;2023-03-31T15:15:46;98723.20;;;13.43;97.54
40171;BME280;37650;52.790;18.268;2023-03-31T15:19:17;98720.48;;;13.36;98.70
40171;BME280;37650;52.790;18.268;2023-03-31T15:22:39;98718.42;;;13.33;99.51
40171;BME280;37650;52.790;18.268;2023-03-31T15:26:05;98718.02;;;13.29;99.72
40171;BME280;37650;52.790;18.268;2023-03-31T15:29:54;98716.98;;;13.22;99.91
40171;BME280;37650;52.790;18.268;2023-03-31T15:33:30;98709.07;;;13.20;100.00
40171;BME280;37650;52.790;18.268;2023-03-31T15:36:56;98711.11;;;13.16;99.97
40171;BME280;37650;52.790;18.268;2023-03-31T15:40:27;98708.90;;;13.12;100.00
40171;BME280;37650;52.790;18.268;2023-03-31T15:44:06;98706.63;;;13.07;100.00
40171;BME280;37650;52.790;18.268;2023-03-31T15:47:31;98702.45;;;12.97;100.00
40171;BME280;37650;52.790;18.268;2023-03-31T15:51:05;98704.06;;;12.91;100.00
40171;BME280;37650;52.790;18.268;2023-03-31T15:54:31;98702.17;;;12.86;100.00
40171;BME280;37650;52.790;18.268;2023-03-31T15:57:53;98701.52;;;12.81;100.00
40171;BME280;37650;52.790;18.268;2023-03-31T16:01:15;98697.04;;;12.75;100.00
40171;BME280;37650;52.790;18.268;2023-03-31T16:04:38;98698.07;;;12.67;100.00
40171;BME280;37650;52.790;18.268;2023-03-31T16:07:59;98692.95;;;12.63;100.00
40171;BME280;37650;52.790;18.268;2023-03-31T16:11:27;98689.55;;;12.59;100.00
40171;BME280;37650;52.790;18.268;2023-03-31T16:18:17;98686.29;;;12.51;100.00
40171;BME280;37650;52.790;18.268;2023-03-31T16:21:47;98685.27;;;12.45;100.00
40171;BME280;37650;52.790;18.268;2023-03-31T16:25:16;98686.77;;;12.39;100.00
40171;BME280;37650;52.790;18.268;2023-03-31T16:28:38;98680.28;;;12.34;100.00
40171;BME280;37650;52.790;18.268;2023-03-31T16:32:11;98678.75;;;12.28;100.00
40171;BME280;37650;52.790;18.268;2023-03-31T16:35:43;98674.19;;;12.21;100.00
40171;BME280;37650;52.790;18.268;2023-03-31T16:39:09;98672.70;;;12.14;100.00
40171;BME280;37650;52.790;18.268;2023-03-31T16:42:30;98668.59;;;12.10;100.00
40171;BME280;37650;52.790;18.268;2023-03-31T16:45:54;98667.02;;;12.05;100.00
40171;BME280;37650;52.790;18.268;2023-03-31T16:49:16;98666.11;;;12.01;100.00
40171;BME280;37650;52.790;18.268;2023-03-31T16:52:37;98662.27;;;11.95;100.00
40171;BME280;37650;52.790;18.268;2023-03-31T16:56:00;98658.40;;;11.90;100.00
40171;BME280;37650;52.790;18.268;2023-03-31T16:59:23;98654.45;;;11.87;100.00
40171;BME280;37650;52.790;18.268;2023-03-31T17:02:45;98653.04;;;11.84;100.00
40171;BME280;37650;52.790;18.268;2023-03-31T17:06:11;98653.23;;;11.79;100.00
40171;BME280;37650;52.790;18.268;2023-03-31T17:09:32;98649.66;;;11.72;100.00
40171;BME280;37650;52.790;18.268;2023-03-31T17:12:54;98652.30;;;11.64;100.00
40171;BME280;37650;52.790;18.268;2023-03-31T17:16:18;98647.12;;;11.58;100.00
40171;BME280;37650;52.790;18.268;2023-03-31T17:19:39;98649.63;;;11.57;100.00
40171;BME280;37650;52.790;18.268;2023-03-31T17:23:01;98647.10;;;11.53;100.00
40171;BME280;37650;52.790;18.268;2023-03-31T17:26:23;98649.34;;;11.51;100.00
40171;BME280;37650;52.790;18.268;2023-03-31T17:29:44;98642.05;;;11.52;100.00
40171;BME280;37650;52.790;18.268;2023-03-31T17:33:06;98643.51;;;11.54;100.00
40171;BME280;37650;52.790;18.268;2023-03-31T17:36:28;98641.52;;;11.55;100.00
40171;BME280;37650;52.790;18.268;2023-03-31T17:39:50;98646.17;;;11.53;100.00
40171;BME280;37650;52.790;18.268;2023-03-31T17:43:12;98653.17;;;11.41;100.00
40171;BME280;37650;52.790;18.268;2023-03-31T17:46:34;98652.08;;;11.18;100.00
40171;BME280;37650;52.790;18.268;2023-03-31T17:49:57;98648.10;;;10.96;100.00
40171;BME280;37650;52.790;18.268;2023-03-31T17:53:18;98650.64;;;10.76;100.00
40171;BME280;37650;52.790;18.268;2023-03-31T17:56:40;98649.48;;;10.62;100.00
40171;BME280;37650;52.790;18.268;2023-03-31T18:00:08;98654.06;;;10.50;100.00
40171;BME280;37650;52.790;18.268;2023-03-31T18:03:33;98658.39;;;10.38;100.00
40171;BME280;37650;52.790;18.268;2023-03-31T18:06:56;98659.66;;;10.32;100.00
40171;BME280;37650;52.790;18.268;2023-03-31T18:10:19;98657.84;;;10.27;100.00
40171;BME280;37650;52.790;18.268;2023-03-31T18:13:42;98658.39;;;10.24;100.00
40171;BME280;37650;52.790;18.268;2023-03-31T18:17:04;98661.28;;;10.20;100.00
40171;BME280;37650;52.790;18.268;2023-03-31T18:20:26;98664.13;;;10.20;100.00
40171;BME280;37650;52.790;18.268;2023-03-31T18:23:49;98660.63;;;10.19;100.00
40171;BME280;37650;52.790;18.268;2023-03-31T18:27:15;98662.20;;;10.20;100.00
40171;BME280;37650;52.790;18.268;2023-03-31T18:30:38;98662.17;;;10.23;100.00
40171;BME280;37650;52.790;18.268;2023-03-31T18:34:00;98662.10;;;10.24;100.00
40171;BME280;37650;52.790;18.268;2023-03-31T18:37:23;98660.94;;;10.17;100.00
40171;BME280;37650;52.790;18.268;2023-03-31T18:40:48;98666.47;;;10.06;100.00
40171;BME280;37650;52.790;18.268;2023-03-31T18:44:10;98664.57;;;9.98;100.00
40171;BME280;37650;52.790;18.268;2023-03-31T18:47:38;98661.43;;;10.00;100.00
40171;BME280;37650;52.790;18.268;2023-03-31T18:51:04;98664.56;;;10.06;100.00
40171;BME280;37650;52.790;18.268;2023-03-31T18:54:27;98663.41;;;10.08;100.00
40171;BME280;37650;52.790;18.268;2023-03-31T18:57:50;98661.91;;;10.12;100.00
40171;BME280;37650;52.790;18.268;2023-03-31T19:01:14;98657.41;;;10.17;100.00
40171;BME280;37650;52.790;18.268;2023-03-31T19:04:39;98659.75;;;10.22;100.00
40171;BME280;37650;52.790;18.268;2023-03-31T19:08:03;98658.53;;;10.16;100.00
40171;BME280;37650;52.790;18.268;2023-03-31T19:11:27;98653.65;;;10.12;100.00
40171;BME280;37650;52.790;18.268;2023-03-31T19:14:52;98651.92;;;10.09;100.00
40171;BME280;37650;52.790;18.268;2023-03-31T19:18:14;98645.70;;;10.05;100.00
40171;BME280;37650;52.790;18.268;2023-03-31T19:21:37;98642.79;;;10.07;100.00
40171;BME280;37650;52.790;18.268;2023-03-31T19:25:01;98640.27;;;10.05;100.00
40171;BME280;37650;52.790;18.268;2023-03-31T19:28:26;98641.30;;;10.00;100.00
40171;BME280;37650;52.790;18.268;2023-03-31T19:31:48;98635.48;;;9.98;100.00
40171;BME280;37650;52.790;18.268;2023-03-31T19:35:12;98631.66;;;9.94;100.00
40171;BME280;37650;52.790;18.268;2023-03-31T19:38:35;98631.86;;;9.91;100.00
40171;BME280;37650;52.790;18.268;2023-03-31T19:41:59;98629.84;;;9.87;100.00
40171;BME280;37650;52.790;18.268;2023-03-31T19:45:22;98627.55;;;9.79;100.00
40171;BME280;37650;52.790;18.268;2023-03-31T19:48:45;98626.21;;;9.75;100.00
40171;BME280;37650;52.790;18.268;2023-03-31T19:52:08;98624.11;;;9.78;100.00
40171;BME280;37650;52.790;18.268;2023-03-31T19:55:31;98621.80;;;9.79;100.00
40171;BME280;37650;52.790;18.268;2023-03-31T19:58:55;98620.42;;;9.75;100.00
40171;BME280;37650;52.790;18.268;2023-03-31T20:02:20;98617.12;;;9.66;100.00
40171;BME280;37650;52.790;18.268;2023-03-31T20:05:43;98613.52;;;9.65;100.00
40171;BME280;37650;52.790;18.268;2023-03-31T20:09:05;98609.98;;;9.66;100.00